Time;durP1;ratioP1;P1;durP2;ratioP2;P2;SDS_P1;SDS_P2;PMS_P1;PMS_P2;Temp;Humidity;BMP_temperature;BMP_pressure;BME280_temperature;BME280_humidity;BME280_pressure;Samples;Min_cycle;Max_cycle;Signal;HPM_P1;HPM_P2
2023/05/01 00:01:05;;;;;;;4.43;2.30;;;;;;;11.58;69.16;100568.03;5041836;28;20294;-74
2023/05/01 00:03:32;;;;;;;2.97;2.30;;;;;;;11.57;69.39;100575.13;5045323;28;20198;-73
2023/05/01 00:06:03;;;;;;;2.10;1.90;;;;;;;11.54;70.03;100571.53;5046070;28;20206;-73
2023/05/01 00:08:30;;;;;;;3.37;1.93;;;;;;;11.56;69.90;100572.44;5039150;28;20209;-74
2023/05/01 00:11:02;;;;;;;3.33;2.10;;;;;;;11.46;69.86;100570.56;5041336;28;20214;-72
2023/05/01 00:13:28;;;;;;;3.60;2.03;;;;;;;11.37;70.81;100565.16;5046610;28;20201;-74
2023/05/01 00:15:55;;;;;;;4.00;2.00;;;;;;;11.26;71.04;100567.66;5047048;28;20195;-73
2023/05/01 00:18:21;;;;;;;4.30;2.20;;;;;;;11.30;70.70;100559.75;5045768;28;20270;-73
2023/05/01 00:20:48;;;;;;;2.33;1.93;;;;;;;11.40;70.13;100554.56;5045797;28;20210;-73
2023/05/01 00:23:14;;;;;;;3.27;2.20;;;;;;;11.57;69.29;100550.34;5047457;28;20352;-73
2023/05/01 00:25:41;;;;;;;4.43;2.40;;;;;;;11.73;67.76;100549.69;5046890;28;20209;-73
2023/05/01 00:28:08;;;;;;;3.60;2.40;;;;;;;11.75;67.66;100549.69;5041013;28;20222;-73
2023/05/01 00:30:34;;;;;;;3.43;2.83;;;;;;;11.89;66.96;100550.75;5045666;28;20269;-73
2023/05/01 00:33:00;;;;;;;4.47;3.10;;;;;;;11.89;66.67;100541.03;5046470;28;20195;-73
2023/05/01 00:35:28;;;;;;;3.73;2.93;;;;;;;12.05;65.91;100533.25;5045084;28;20482;-72
2023/05/01 00:37:55;;;;;;;7.07;2.73;;;;;;;11.99;66.09;100536.69;5045211;28;20217;-73
2023/05/01 00:40:21;;;;;;;3.83;2.40;;;;;;;11.92;66.17;100534.84;5048018;28;20207;-73
2023/05/01 00:42:48;;;;;;;2.90;2.17;;;;;;;11.90;66.52;100533.97;5045337;28;20202;-73
2023/05/01 00:45:14;;;;;;;3.10;2.30;;;;;;;11.79;67.02;100530.31;5043923;28;20200;-73
2023/05/01 00:47:41;;;;;;;2.87;2.43;;;;;;;11.87;66.55;100528.63;5024826;28;20220;-73
2023/05/01 00:50:08;;;;;;;3.53;2.33;;;;;;;11.72;67.29;100533.75;5043438;28;20246;-73
2023/05/01 00:52:34;;;;;;;4.13;2.30;;;;;;;11.69;67.29;100525.75;5039641;28;20617;-74
2023/05/01 00:55:01;;;;;;;3.07;2.53;;;;;;;11.72;67.17;100524.03;5043283;28;20219;-73
2023/05/01 00:57:28;;;;;;;3.13;2.30;;;;;;;11.73;67.03;100520.50;5023583;28;20299;-72
2023/05/01 00:59:54;;;;;;;6.00;2.23;;;;;;;11.70;66.77;100508.97;5044794;28;20265;-73
2023/05/01 01:02:21;;;;;;;3.90;2.50;;;;;;;11.61;67.58;100509.75;5040509;28;20424;-73
2023/05/01 01:04:48;;;;;;;5.17;2.47;;;;;;;11.61;67.28;100515.06;5038157;28;20207;-72
2023/05/01 01:07:28;;;;;;;3.30;2.40;;;;;;;11.60;66.84;100511.47;5041297;28;20643;-73
2023/05/01 01:10:04;;;;;;;4.90;2.70;;;;;;;11.44;68.60;100512.19;5021330;28;20219;-72
2023/05/01 01:12:41;;;;;;;4.13;2.30;;;;;;;11.36;68.63;100503.28;5037906;28;20195;-72
2023/05/01 01:15:21;;;;;;;3.77;2.30;;;;;;;11.26;69.43;100496.97;5046210;28;20205;-73
2023/05/01 01:17:57;;;;;;;4.43;2.23;;;;;;;11.28;69.16;100505.84;5042366;28;20261;-74
2023/05/01 01:20:43;;;;;;;2.30;2.00;;;;;;;11.13;70.52;100500.31;5046953;28;20759;-74
2023/05/01 01:23:09;;;;;;;3.20;2.30;;;;;;;11.16;69.46;100495.06;5046176;28;20293;-73
2023/05/01 01:26:00;;;;;;;3.80;2.40;;;;;;;11.01;70.42;100500.16;5044947;28;20667;-74
2023/05/01 01:28:36;;;;;;;5.40;2.40;;;;;;;10.85;72.27;100493.78;5040482;28;20229;-73
2023/05/01 01:31:31;;;;;;;4.30;2.10;;;;;;;10.81;74.03;100483.13;5044717;28;20226;-73
2023/05/01 01:34:08;;;;;;;4.87;2.47;;;;;;;10.64;75.28;100485.50;5040572;28;20293;-73
2023/05/01 01:36:38;;;;;;;3.83;2.40;;;;;;;10.48;75.05;100480.88;5043754;28;20207;-73
2023/05/01 01:39:12;;;;;;;2.93;2.27;;;;;;;10.33;75.90;100477.09;5028416;28;20250;-74
2023/05/01 01:41:40;;;;;;;3.53;2.50;;;;;;;10.41;75.63;100471.94;5044043;28;20765;-73
2023/05/01 01:44:15;;;;;;;7.90;2.77;;;;;;;10.41;75.38;100476.34;5046773;28;20643;-74
2023/05/01 01:46:42;;;;;;;3.27;2.30;;;;;;;10.32;75.82;100475.31;5047144;28;20221;-73
2023/05/01 01:49:15;;;;;;;3.50;2.50;;;;;;;10.32;75.43;100477.97;5034580;28;20654;-73
2023/05/01 01:51:46;;;;;;;4.20;2.50;;;;;;;10.40;74.62;100470.13;5046333;28;20665;-75
2023/05/01 01:54:17;;;;;;;4.27;2.57;;;;;;;10.41;74.50;100471.94;5042279;28;20213;-73
2023/05/01 01:56:46;;;;;;;2.43;2.10;;;;;;;10.41;74.25;100466.66;5047902;28;20296;-73
2023/05/01 01:59:14;;;;;;;4.83;2.60;;;;;;;10.30;74.82;100462.94;5047504;28;20241;-74
2023/05/01 02:01:43;;;;;;;3.63;2.23;;;;;;;10.24;75.59;100463.72;5044933;28;20228;-73
2023/05/01 02:04:12;;;;;;;4.13;2.30;;;;;;;10.20;75.10;100467.19;5041811;28;20199;-73
2023/05/01 02:06:40;;;;;;;2.93;2.40;;;;;;;10.10;75.98;100462.59;5044173;28;20297;-73
2023/05/01 02:09:09;;;;;;;2.63;2.20;;;;;;;10.10;76.28;100457.28;5034949;28;20222;-73
2023/05/01 02:11:37;;;;;;;3.97;2.40;;;;;;;10.15;76.94;100457.38;5041548;28;20194;-74
2023/05/01 02:14:05;;;;;;;4.03;2.83;;;;;;;10.19;77.00;100461.84;5038303;28;20301;-73
2023/05/01 02:16:34;;;;;;;3.20;2.53;;;;;;;10.23;75.29;100467.25;5036091;28;20202;-73
2023/05/01 02:19:03;;;;;;;3.53;2.20;;;;;;;10.11;77.04;100461.72;5033787;28;20236;-73
2023/05/01 02:21:32;;;;;;;3.70;2.40;;;;;;;10.01;77.32;100465.09;5036346;28;20196;-75
2023/05/01 02:24:04;;;;;;;4.40;2.40;;;;;;;9.80;78.96;100462.06;5036600;28;20632;-73
2023/05/01 02:26:37;;;;;;;5.03;2.83;;;;;;;9.70;80.61;100456.63;5047874;28;20205;-73
2023/05/01 02:29:06;;;;;;;4.33;3.00;;;;;;;9.65;81.21;100458.28;5043912;28;20260;-74
2023/05/01 02:31:33;;;;;;;4.87;2.80;;;;;;;9.54;82.99;100453.66;5042718;28;20200;-73
2023/05/01 02:33:59;;;;;;;3.10;2.50;;;;;;;9.54;82.57;100456.28;5047162;28;20475;-73
2023/05/01 02:36:26;;;;;;;3.53;2.77;;;;;;;9.45;82.26;100453.47;5025314;28;20209;-73
2023/05/01 02:38:55;;;;;;;4.97;2.87;;;;;;;9.36;84.25;100454.22;5042429;28;20228;-73
2023/05/01 02:41:24;;;;;;;5.10;2.87;;;;;;;9.50;85.07;100447.41;5044755;28;20209;-74
2023/05/01 02:43:57;;;;;;;3.73;2.70;;;;;;;9.55;84.95;100453.66;5039741;28;20255;-74
2023/05/01 02:46:26;;;;;;;3.50;2.63;;;;;;;9.37;86.78;100448.06;5043701;28;20206;-73
2023/05/01 02:48:54;;;;;;;3.53;2.53;;;;;;;9.16;87.24;100439.69;5036542;28;20222;-73
2023/05/01 02:51:22;;;;;;;4.27;2.90;;;;;;;9.07;88.83;100448.34;5035264;28;20207;-73
2023/05/01 02:53:48;;;;;;;5.57;3.67;;;;;;;8.95;88.81;100448.97;5044513;28;20291;-72
2023/05/01 02:56:15;;;;;;;4.70;3.10;;;;;;;8.81;88.95;100445.19;5047129;28;20201;-73
2023/05/01 02:58:41;;;;;;;3.93;2.80;;;;;;;8.66;90.13;100444.81;5042595;28;20280;-73
2023/05/01 03:01:07;;;;;;;3.40;2.60;;;;;;;8.56;90.76;100445.47;5041801;28;20199;-73
2023/05/01 03:03:34;;;;;;;4.10;2.60;;;;;;;8.44;91.29;100444.38;5036089;28;20682;-72
2023/05/01 03:06:01;;;;;;;4.03;2.80;;;;;;;8.36;92.29;100442.38;5039743;28;20205;-72
2023/05/01 03:08:27;;;;;;;5.10;2.90;;;;;;;8.47;92.77;100439.16;5045994;28;20504;-72
2023/05/01 03:10:54;;;;;;;4.10;2.93;;;;;;;8.65;92.07;100437.75;5043061;28;20202;-73
2023/05/01 03:13:21;;;;;;;3.17;2.70;;;;;;;8.56;91.85;100437.56;5025537;28;20587;-72
2023/05/01 03:15:47;;;;;;;3.93;3.07;;;;;;;8.50;92.92;100434.78;5037884;28;20196;-73
2023/05/01 03:18:14;;;;;;;4.87;3.07;;;;;;;8.51;92.82;100433.94;5038549;28;20226;-72
2023/05/01 03:20:50;;;;;;;5.53;3.00;;;;;;;8.47;93.07;100435.63;5040622;28;20739;-72
2023/05/01 03:23:16;;;;;;;3.10;2.73;;;;;;;8.35;94.18;100435.31;5040322;28;20260;-72
2023/05/01 03:25:43;;;;;;;4.67;3.00;;;;;;;8.31;96.84;100426.41;5037189;28;20582;-72
2023/05/01 03:28:09;;;;;;;3.53;2.90;;;;;;;8.27;97.89;100439.50;5036383;28;20683;-73
2023/05/01 03:30:35;;;;;;;3.87;2.90;;;;;;;8.28;97.98;100431.63;5047706;28;20230;-72
2023/05/01 03:33:02;;;;;;;6.33;3.00;;;;;;;8.39;96.28;100427.50;5041449;28;20257;-74
2023/05/01 03:35:28;;;;;;;3.00;2.60;;;;;;;8.36;96.53;100431.81;5025742;28;20206;-72
2023/05/01 03:37:55;;;;;;;4.00;3.00;;;;;;;8.30;97.80;100423.75;5044388;28;20210;-73
2023/05/01 03:40:22;;;;;;;4.53;2.90;;;;;;;8.23;98.54;100419.19;5036487;28;20203;-72
2023/05/01 03:42:48;;;;;;;4.20;3.10;;;;;;;8.17;99.18;100428.75;5040079;28;20202;-72
2023/05/01 03:45:15;;;;;;;4.03;3.30;;;;;;;8.17;99.37;100415.56;5042653;28;20294;-72
2023/05/01 03:47:41;;;;;;;4.13;3.03;;;;;;;8.18;99.81;100417.34;5044276;28;20192;-72
2023/05/01 03:50:08;;;;;;;4.30;3.20;;;;;;;8.28;100.00;100420.19;5027712;28;20223;-72
2023/05/01 03:52:35;;;;;;;4.60;3.03;;;;;;;8.46;100.00;100413.63;5020632;28;20218;-73
2023/05/01 03:55:01;;;;;;;5.10;3.33;;;;;;;8.59;100.00;100413.88;5039815;28;20290;-72
2023/05/01 03:57:27;;;;;;;5.20;3.30;;;;;;;8.63;99.03;100415.72;5039028;28;20242;-72
2023/05/01 03:59:54;;;;;;;8.97;3.30;;;;;;;8.67;99.01;100417.56;5036545;28;20770;-73
2023/05/01 04:02:21;;;;;;;4.90;3.17;;;;;;;8.74;99.23;100409.78;5043041;28;20199;-72
2023/05/01 04:04:47;;;;;;;3.70;3.13;;;;;;;8.83;98.83;100413.53;5046397;28;20190;-73
2023/05/01 04:07:14;;;;;;;4.33;2.97;;;;;;;8.87;98.75;100410.06;5037341;28;20195;-73
2023/05/01 04:09:40;;;;;;;4.53;3.13;;;;;;;8.91;98.49;100407.53;5040391;28;20215;-72
2023/05/01 04:12:06;;;;;;;4.17;3.37;;;;;;;8.98;98.22;100412.06;5034101;28;20624;-72
2023/05/01 04:14:33;;;;;;;5.60;3.40;;;;;;;9.09;97.34;100407.00;5046247;28;20198;-72
2023/05/01 04:16:59;;;;;;;3.40;3.00;;;;;;;9.19;95.59;100406.28;5043465;28;20199;-74
2023/05/01 04:19:26;;;;;;;7.37;3.30;;;;;;;9.26;95.26;100410.88;5042069;28;20243;-74
2023/05/01 04:21:55;;;;;;;5.23;3.10;;;;;;;9.52;92.33;100406.03;5041367;28;20235;-73
2023/05/01 04:24:21;;;;;;;4.30;3.10;;;;;;;9.62;90.94;100407.13;5044794;28;20226;-73
2023/05/01 04:26:49;;;;;;;3.90;3.10;;;;;;;9.61;90.71;100400.03;5045940;28;20636;-73
2023/05/01 04:29:15;;;;;;;3.80;2.90;;;;;;;9.60;90.65;100406.16;5042026;23;20307;-72
2023/05/01 04:31:42;;;;;;;10.07;3.30;;;;;;;9.57;90.92;100406.09;5010825;28;20589;-69
2023/05/01 04:34:08;;;;;;;5.67;3.50;;;;;;;9.59;90.77;100418.50;5027904;28;20762;-72
2023/05/01 04:36:35;;;;;;;3.77;2.80;;;;;;;9.60;90.34;100416.75;5025362;28;20226;-72
2023/05/01 04:39:02;;;;;;;5.37;3.10;;;;;;;9.64;90.13;100410.66;5034223;28;20244;-72
2023/05/01 04:41:28;;;;;;;5.27;2.80;;;;;;;9.75;89.62;100411.75;5017529;28;20213;-73
2023/05/01 04:43:55;;;;;;;4.90;3.27;;;;;;;9.91;89.67;100411.13;5021754;28;20197;-72
2023/05/01 04:46:23;;;;;;;4.30;3.10;;;;;;;10.01;89.12;100409.53;5023405;28;20677;-72
2023/05/01 04:48:50;;;;;;;5.20;4.00;;;;;;;10.11;88.10;100405.25;5021932;28;20198;-72
2023/05/01 04:51:16;;;;;;;4.70;3.33;;;;;;;10.23;86.72;100405.47;5040086;28;20243;-72
2023/05/01 04:53:42;;;;;;;4.90;3.27;;;;;;;10.30;86.31;100413.53;5040745;28;20205;-74
2023/05/01 04:56:09;;;;;;;4.90;3.07;;;;;;;10.30;85.91;100408.22;5047651;28;20654;-73
2023/05/01 04:58:35;;;;;;;4.37;3.23;;;;;;;10.37;85.62;100414.50;5034945;28;20214;-72
2023/05/01 05:01:02;;;;;;;4.13;2.93;;;;;;;10.48;85.04;100417.31;5045449;28;20248;-72
2023/05/01 05:03:28;;;;;;;4.43;3.13;;;;;;;10.58;84.72;100411.28;5048743;28;20216;-72
2023/05/01 05:05:54;;;;;;;3.93;2.90;;;;;;;10.70;83.92;100416.72;5029984;28;20194;-72
2023/05/01 05:08:21;;;;;;;5.53;3.27;;;;;;;10.73;84.16;100405.28;5027624;28;20193;-73
2023/05/01 05:10:47;;;;;;;4.40;2.70;;;;;;;10.84;84.13;100415.16;5031037;28;20233;-72
2023/05/01 05:13:13;;;;;;;5.63;3.00;;;;;;;10.91;83.39;100413.47;5053640;28;20241;-72
2023/05/01 05:15:40;;;;;;;4.33;2.97;;;;;;;11.03;83.01;100423.34;5040685;28;20199;-72
2023/05/01 05:18:06;;;;;;;4.30;3.10;;;;;;;11.04;82.44;100428.66;5035608;28;20248;-71
2023/05/01 05:20:37;;;;;;;3.73;3.00;;;;;;;11.17;82.41;100427.91;5032854;28;20295;-72
2023/05/01 05:23:03;;;;;;;4.40;2.90;;;;;;;11.32;82.41;100423.69;5050821;28;20202;-73
2023/05/01 05:25:29;;;;;;;5.07;3.90;;;;;;;11.46;81.21;100416.75;5061143;28;20246;-73
2023/05/01 05:27:56;;;;;;;6.07;3.47;;;;;;;11.56;80.22;100408.88;5047924;28;20259;-72
2023/05/01 05:30:22;;;;;;;5.10;2.90;;;;;;;11.73;80.79;100417.03;5044018;28;20701;-73
2023/05/01 05:32:49;;;;;;;4.10;2.93;;;;;;;11.85;79.51;100422.47;5045865;28;20259;-74
2023/05/01 05:35:15;;;;;;;6.27;3.47;;;;;;;11.96;76.17;100413.69;5044119;28;20223;-74
2023/05/01 05:37:41;;;;;;;6.97;3.53;;;;;;;12.17;75.32;100405.91;5051383;28;20204;-72
2023/05/01 05:40:11;;;;;;;4.13;3.10;;;;;;;12.34;72.10;100416.63;5044181;28;20225;-74
2023/05/01 05:42:40;;;;;;;4.57;3.20;;;;;;;12.48;70.48;100410.53;5043907;28;20239;-74
2023/05/01 05:45:07;;;;;;;4.47;3.33;;;;;;;12.61;68.73;100414.16;5042531;28;20207;-73
2023/05/01 05:47:33;;;;;;;6.87;3.90;;;;;;;12.69;68.15;100408.88;5051389;28;20198;-73
2023/05/01 05:49:59;;;;;;;4.67;3.30;;;;;;;12.76;68.62;100408.91;5051106;28;20267;-75
2023/05/01 05:52:26;;;;;;;6.27;3.77;;;;;;;12.89;68.27;100406.31;5028509;28;20554;-77
2023/05/01 05:54:52;;;;;;;7.53;3.70;;;;;;;13.03;66.99;100402.81;5041676;28;20203;-77
2023/05/01 05:57:18;;;;;;;5.83;3.50;;;;;;;13.24;65.31;100404.72;5049749;28;20269;-80
2023/05/01 05:59:45;;;;;;;6.20;3.77;;;;;;;13.42;64.48;100399.44;5045497;28;20631;-80
2023/05/01 06:02:11;;;;;;;4.50;3.73;;;;;;;13.55;63.67;100402.09;5043634;28;20201;-80
2023/05/01 06:04:38;;;;;;;5.13;3.70;;;;;;;13.74;63.48;100403.91;5045959;28;20232;-82
2023/05/01 06:07:05;;;;;;;7.40;3.77;;;;;;;13.89;61.97;100403.91;5043427;28;20746;-82
2023/05/01 06:09:32;;;;;;;5.93;4.00;;;;;;;14.19;61.76;100404.78;5044589;28;20646;-80
2023/05/01 06:11:58;;;;;;;8.27;3.93;;;;;;;14.36;59.84;100406.53;5049813;28;20247;-81
2023/05/01 06:14:24;;;;;;;7.27;3.87;;;;;;;14.65;58.61;100403.84;5035133;28;20248;-77
2023/05/01 06:16:51;;;;;;;5.10;3.67;;;;;;;14.89;57.02;100404.66;5043605;28;20238;-76
2023/05/01 06:19:17;;;;;;;9.90;4.50;;;;;;;15.11;56.24;100398.31;5033064;28;20778;-76
2023/05/01 06:21:43;;;;;;;4.77;3.90;;;;;;;15.31;53.69;100401.78;5044819;28;20199;-73
2023/05/01 06:24:10;;;;;;;7.30;3.80;;;;;;;15.51;53.90;100395.41;5048770;28;20558;-74
2023/05/01 06:26:36;;;;;;;5.00;4.00;;;;;;;15.62;52.16;100393.63;5041715;28;20241;-74
2023/05/01 06:29:02;;;;;;;6.00;4.00;;;;;;;15.57;50.87;100398.94;5048860;28;20313;-73
2023/05/01 06:31:29;;;;;;;8.67;4.33;;;;;;;15.72;51.13;100381.97;5040334;28;20235;-74
2023/05/01 06:33:55;;;;;;;6.43;4.00;;;;;;;15.92;50.64;100379.13;5046522;28;20203;-72
2023/05/01 06:36:22;;;;;;;5.97;3.80;;;;;;;16.33;50.22;100380.53;5041601;28;20203;-73
2023/05/01 06:38:48;;;;;;;5.80;3.73;;;;;;;16.45;49.52;100386.66;5046648;28;20238;-72
2023/05/01 06:41:15;;;;;;;7.00;3.73;;;;;;;16.50;47.95;100387.47;5047473;28;20686;-73
2023/05/01 06:43:41;;;;;;;7.33;4.07;;;;;;;16.41;48.90;100379.56;5046833;28;20226;-70
2023/05/01 06:46:07;;;;;;;5.50;4.00;;;;;;;16.48;48.18;100380.38;5024749;28;20190;-73
2023/05/01 06:48:34;;;;;;;6.53;4.40;;;;;;;16.74;48.83;100382.78;5025184;28;20195;-74
2023/05/01 06:51:00;;;;;;;8.47;3.77;;;;;;;16.85;47.05;100381.75;5046481;28;20242;-72
2023/05/01 06:53:27;;;;;;;7.53;4.40;;;;;;;16.87;46.96;100381.75;5048144;28;20223;-71
2023/05/01 06:55:53;;;;;;;6.43;4.40;;;;;;;16.77;46.34;100372.03;5051923;28;20198;-72
2023/05/01 06:58:20;;;;;;;5.40;3.90;;;;;;;16.82;46.78;100370.22;5042131;28;20198;-74
2023/05/01 07:00:50;;;;;;;5.67;4.20;;;;;;;17.13;46.41;100371.56;5030782;28;20305;-73
2023/05/01 07:03:16;;;;;;;7.13;4.20;;;;;;;18.40;43.67;100367.75;5041806;28;20198;-73
2023/05/01 07:05:43;;;;;;;5.53;3.93;;;;;;;20.12;39.15;100368.44;5050563;28;20210;-75
2023/05/01 07:08:09;;;;;;;7.60;4.07;;;;;;;21.18;36.78;100369.03;5031066;28;20586;-72
2023/05/01 07:10:36;;;;;;;8.20;4.10;;;;;;;21.07;35.13;100365.81;5041323;28;20215;-72
2023/05/01 07:13:06;;;;;;;6.90;4.43;;;;;;;20.69;36.05;100370.50;5043709;28;20298;-73
2023/05/01 07:15:33;;;;;;;6.00;4.10;;;;;;;20.19;37.66;100363.78;5048218;28;20199;-72
2023/05/01 07:18:01;;;;;;;7.13;4.10;;;;;;;20.58;36.65;100370.78;5043849;28;20195;-72
2023/05/01 07:20:28;;;;;;;6.53;4.20;;;;;;;20.70;36.91;100364.19;5032493;28;20335;-71
2023/05/01 07:22:54;;;;;;;8.47;4.57;;;;;;;18.88;39.43;100375.78;5047553;28;20198;-73
2023/05/01 07:25:21;;;;;;;6.13;4.10;;;;;;;19.17;39.12;100377.81;5041153;28;20233;-72
2023/05/01 07:27:47;;;;;;;8.13;4.50;;;;;;;18.96;40.16;100375.63;5044299;28;20236;-72
2023/05/01 07:30:13;;;;;;;6.23;4.27;;;;;;;18.81;40.46;100376.81;5048314;28;20229;-72
2023/05/01 07:32:40;;;;;;;7.67;4.47;;;;;;;18.44;41.17;100371.28;5050657;28;20210;-73
2023/05/01 07:35:07;;;;;;;5.43;4.20;;;;;;;18.25;41.24;100360.00;5040735;28;20194;-73
2023/05/01 07:37:33;;;;;;;6.43;4.37;;;;;;;17.80;42.79;100367.94;5042494;28;20287;-72
2023/05/01 07:40:00;;;;;;;6.33;4.37;;;;;;;17.66;43.00;100361.00;5030425;28;20648;-72
2023/05/01 07:42:27;;;;;;;7.23;4.30;;;;;;;17.97;42.84;100367.63;5025603;28;20625;-72
2023/05/01 07:44:53;;;;;;;4.87;4.03;;;;;;;18.21;42.45;100360.09;5047057;28;20628;-72
2023/05/01 07:47:19;;;;;;;6.17;4.30;;;;;;;18.28;41.98;100375.13;5037278;28;20214;-72
2023/05/01 07:49:46;;;;;;;5.03;4.17;;;;;;;17.84;42.32;100363.41;5033643;28;20223;-72
2023/05/01 07:52:14;;;;;;;5.60;4.30;;;;;;;17.70;42.90;100366.31;5041797;28;20226;-73
2023/05/01 07:54:41;;;;;;;5.70;4.10;;;;;;;17.64;43.68;100368.19;5049094;28;20244;-73
2023/05/01 07:57:07;;;;;;;6.40;4.20;;;;;;;17.89;43.10;100361.53;5047622;28;20320;-73
2023/05/01 07:59:33;;;;;;;5.53;4.03;;;;;;;18.17;41.79;100354.78;5033171;28;20219;-72
2023/05/01 08:02:00;;;;;;;7.73;4.33;;;;;;;18.57;41.18;100363.88;5044948;28;20199;-71
2023/05/01 08:04:26;;;;;;;5.13;4.20;;;;;;;18.75;40.90;100369.78;5040205;28;20480;-72
2023/05/01 08:06:53;;;;;;;5.97;4.17;;;;;;;19.14;40.64;100368.97;5022757;28;20687;-72
2023/05/01 08:09:19;;;;;;;7.07;4.70;;;;;;;19.01;40.03;100360.31;5053857;28;20718;-72
2023/05/01 08:11:46;;;;;;;4.93;3.80;;;;;;;19.17;40.21;100368.88;5034846;28;20204;-72
2023/05/01 08:14:12;;;;;;;6.00;4.43;;;;;;;19.18;40.44;100370.66;5033345;28;20741;-72
2023/05/01 08:16:38;;;;;;;5.27;4.40;;;;;;;19.39;39.74;100368.38;5031820;28;20626;-72
2023/05/01 08:19:05;;;;;;;6.40;3.93;;;;;;;19.46;40.34;100368.25;5033032;28;20255;-73
2023/05/01 08:21:31;;;;;;;5.50;4.07;;;;;;;19.30;39.93;100365.03;5053724;28;20692;-72
2023/05/01 08:23:58;;;;;;;6.67;4.40;;;;;;;19.12;40.56;100360.06;5047739;28;20226;-71
2023/05/01 08:26:24;;;;;;;6.53;4.60;;;;;;;19.17;40.20;100350.97;5056588;28;20202;-71
2023/05/01 08:28:50;;;;;;;7.67;4.90;;;;;;;19.36;40.49;100354.16;5060476;28;20222;-71
2023/05/01 08:31:18;;;;;;;7.13;4.63;;;;;;;19.22;40.35;100353.59;5041622;28;20234;-71
2023/05/01 08:33:44;;;;;;;8.43;4.97;;;;;;;18.53;41.85;100355.00;5060936;28;20203;-71
2023/05/01 08:36:11;;;;;;;7.97;4.60;;;;;;;18.56;42.46;100354.94;5053145;28;20293;-71
2023/05/01 08:38:37;;;;;;;7.77;4.30;;;;;;;18.47;42.44;100358.69;5047655;28;20198;-72
2023/05/01 08:41:04;;;;;;;6.03;4.37;;;;;;;18.68;42.48;100351.16;5054985;28;20268;-71
2023/05/01 08:43:31;;;;;;;6.97;4.70;;;;;;;18.88;42.02;100358.81;5059890;28;20217;-70
2023/05/01 08:46:00;;;;;;;6.83;4.60;;;;;;;18.90;41.55;100349.81;5057344;28;20250;-71
2023/05/01 08:48:28;;;;;;;7.50;4.90;;;;;;;18.92;42.31;100350.66;5056563;28;20211;-70
2023/05/01 08:50:58;;;;;;;6.97;4.70;;;;;;;18.85;42.03;100353.50;5062411;28;20530;-71
2023/05/01 08:53:25;;;;;;;7.30;4.70;;;;;;;18.87;40.98;100347.19;5059444;28;20209;-71
2023/05/01 08:55:55;;;;;;;8.40;4.63;;;;;;;18.87;41.43;100347.19;5055445;28;20505;-71
2023/05/01 08:58:24;;;;;;;6.90;4.90;;;;;;;18.81;41.13;100352.66;5052478;28;20707;-72
2023/05/01 09:00:55;;;;;;;7.00;4.73;;;;;;;18.89;42.41;100341.78;5040298;28;20222;-71
2023/05/01 09:03:21;;;;;;;5.90;4.70;;;;;;;19.06;42.10;100343.16;5055355;28;20195;-71
2023/05/01 09:05:48;;;;;;;9.90;5.00;;;;;;;19.14;40.78;100345.69;5049733;28;20199;-71
2023/05/01 09:08:15;;;;;;;7.40;4.50;;;;;;;19.26;40.35;100342.75;5057077;28;20273;-71
2023/05/01 09:10:46;;;;;;;6.73;4.67;;;;;;;19.58;39.80;100339.31;5061287;28;20214;-71
2023/05/01 09:13:12;;;;;;;6.77;4.67;;;;;;;19.88;39.62;100339.47;5052184;28;20194;-71
2023/05/01 09:15:39;;;;;;;6.43;4.90;;;;;;;19.85;39.73;100343.13;5062240;28;20569;-71
2023/05/01 09:18:07;;;;;;;7.40;4.97;;;;;;;20.07;40.05;100340.78;5032214;28;20202;-72
2023/05/01 09:20:36;;;;;;;6.60;4.53;;;;;;;19.83;39.36;100347.66;5057018;28;20608;-70
2023/05/01 09:23:02;;;;;;;6.40;5.00;;;;;;;19.97;39.83;100339.22;5035895;28;20433;-72
2023/05/01 09:25:30;;;;;;;6.60;4.43;;;;;;;20.13;38.80;100329.88;5051536;28;20203;-72
2023/05/01 09:27:56;;;;;;;6.10;4.67;;;;;;;20.06;38.43;100325.56;5031166;28;21351;-72
2023/05/01 09:30:34;;;;;;;8.75;4.90;;;;;;;20.56;38.83;100332.28;5041817;28;20712;-73
2023/05/01 09:33:11;;;;;;;6.40;4.43;;;;;;;20.68;38.32;100332.84;5048578;28;20211;-71
2023/05/01 09:35:55;;;;;;;5.30;4.53;;;;;;;20.73;38.53;100338.97;5034850;28;20204;-73
2023/05/01 09:38:23;;;;;;;7.13;4.68;;;;;;;20.90;38.93;100336.69;5039060;28;20286;-74
2023/05/01 09:40:55;;;;;;;5.55;4.45;;;;;;;20.86;37.99;100332.34;5055294;28;20222;-73
2023/05/01 09:43:25;;;;;;;7.95;4.88;;;;;;;20.87;38.51;100328.72;5036976;28;20201;-75
2023/05/01 09:46:11;;;;;;;6.57;4.50;;;;;;;20.66;38.55;100327.53;5039208;28;20229;-74
2023/05/01 09:48:38;;;;;;;10.30;4.28;;;;;;;20.68;38.49;100327.47;5057287;28;20237;-73
2023/05/01 09:51:24;;;;;;;7.38;4.55;;;;;;;20.85;38.32;100328.75;5053876;28;20244;-73
2023/05/01 09:53:51;;;;;;;8.05;4.05;;;;;;;20.95;38.70;100327.56;5056743;28;20206;-73
2023/05/01 09:56:19;;;;;;;5.47;4.10;;;;;;;20.79;38.21;100323.53;5057251;28;20202;-73
2023/05/01 09:58:46;;;;;;;6.47;4.53;;;;;;;20.72;39.72;100329.16;5057912;28;20195;-73
2023/05/01 10:01:12;;;;;;;7.57;4.50;;;;;;;20.68;38.11;100327.47;5037569;28;20516;-73
2023/05/01 10:03:39;;;;;;;6.78;4.80;;;;;;;20.51;38.29;100323.47;5058977;28;20226;-72
2023/05/01 10:06:08;;;;;;;7.63;4.03;;;;;;;20.29;39.73;100319.56;5053827;28;20585;-74
2023/05/01 10:08:49;;;;;;;5.45;4.28;;;;;;;20.30;39.60;100321.31;5056900;28;20195;-74
2023/05/01 10:11:15;;;;;;;5.53;3.95;;;;;;;20.43;39.13;100324.63;5062442;28;20606;-74
2023/05/01 10:13:42;;;;;;;7.00;4.78;;;;;;;20.55;39.30;100316.19;5038034;28;20202;-72
2023/05/01 10:16:28;;;;;;;5.82;4.80;;;;;;;20.62;38.64;100323.16;5054262;28;20239;-73
2023/05/01 10:18:57;;;;;;;6.55;4.43;;;;;;;20.29;39.67;100322.25;5056591;28;20670;-73
2023/05/01 10:21:23;;;;;;;8.65;4.63;;;;;;;20.49;39.28;100314.56;5042808;28;20237;-73
2023/05/01 10:23:51;;;;;;;8.18;4.30;;;;;;;20.53;37.64;100309.97;5036161;28;20200;-74
2023/05/01 10:26:19;;;;;;;7.93;5.25;;;;;;;20.81;37.82;100310.03;5059569;28;20194;-74
2023/05/01 10:28:47;;;;;;;5.97;4.60;;;;;;;21.13;37.19;100314.44;5052827;28;20257;-73
2023/05/01 10:31:15;;;;;;;6.20;4.82;;;;;;;21.42;37.38;100316.25;5055391;23;20250;-71
2023/05/01 10:33:43;;;;;;;6.07;4.10;;;;;;;21.42;36.57;100317.13;5040573;28;20683;-72
2023/05/01 10:36:16;;;;;;;6.10;4.45;;;;;;;21.42;35.37;100316.25;5043680;28;20198;-72
2023/05/01 10:38:47;;;;;;;5.07;4.18;;;;;;;21.31;37.15;100318.41;5045617;28;20625;-71
2023/05/01 10:41:15;;;;;;;5.57;4.30;;;;;;;21.35;37.00;100320.09;5046026;28;20314;-71
2023/05/01 10:43:42;;;;;;;7.38;4.50;;;;;;;21.39;36.31;100316.34;5049015;28;20244;-73
2023/05/01 10:46:08;;;;;;;5.70;4.75;;;;;;;21.35;35.68;100312.00;5047164;28;20211;-71
2023/05/01 10:48:43;;;;;;;6.53;4.72;;;;;;;21.53;36.53;100314.09;5046168;28;20195;-71
2023/05/01 10:51:16;;;;;;;6.13;4.60;;;;;;;21.94;35.77;100310.00;5046034;28;20218;-71
2023/05/01 10:53:45;;;;;;;8.43;4.90;;;;;;;22.38;35.38;100304.88;5041719;28;20201;-71
2023/05/01 10:56:20;;;;;;;5.70;4.13;;;;;;;22.73;34.21;100307.16;5049056;28;20233;-72
2023/05/01 10:58:58;;;;;;;6.40;4.15;;;;;;;22.86;33.16;100298.66;5048989;28;20246;-71
2023/05/01 11:01:35;;;;;;;6.22;4.55;;;;;;;22.83;34.55;100296.94;5046945;28;20287;-71
2023/05/01 11:04:26;;;;;;;7.85;4.70;;;;;;;23.07;34.52;100295.09;5042976;28;20190;-71
2023/05/01 11:07:02;;;;;;;8.52;4.68;;;;;;;23.30;33.88;100286.09;5043881;28;20198;-71
2023/05/01 11:09:50;;;;;;;7.28;4.80;;;;;;;23.33;32.66;100300.34;5045497;28;20635;-71
2023/05/01 11:12:47;;;;;;;6.88;4.60;;;;;;;23.44;32.50;100286.38;5049630;28;20206;-71
2023/05/01 11:15:27;;;;;;;8.73;4.72;;;;;;;23.61;31.89;100285.72;5044215;28;20206;-71
2023/05/01 11:17:54;;;;;;;6.63;4.40;;;;;;;23.95;31.69;100285.16;5044145;28;20194;-71
2023/05/01 11:20:24;;;;;;;5.85;4.22;;;;;;;24.01;31.15;100279.47;5046180;28;20227;-72
2023/05/01 11:22:52;;;;;;;6.82;4.55;;;;;;;24.09;31.08;100280.03;5037199;28;20203;-71
2023/05/01 11:25:20;;;;;;;4.35;3.90;;;;;;;24.08;31.13;100278.28;5048216;28;20580;-71
2023/05/01 11:27:48;;;;;;;5.70;3.65;;;;;;;24.34;30.76;100279.84;5037628;28;20227;-71
2023/05/01 11:30:15;;;;;;;5.35;3.95;;;;;;;23.87;31.32;100279.22;5034877;28;20242;-71
2023/05/01 11:32:46;;;;;;;4.57;3.40;;;;;;;24.22;30.52;100273.13;5041357;28;20195;-71